Choose a state:
Most recent flow and stage for Minnesota
(Stations highlighted in red are currently above flood stage)
USGS
station
ID
USGS station name NWS
flood
stage
(ft)
Most recent
stage
(ft)
Most recent
flow
(cfs)
Historical
peaks
(cfs)
Most recent
local
date/time
NWS
station
ID
04010500 PIGEON RIVER AT MIDDLE FALLS NR GRAND PORTAGE MN   3.03 207 11,000 2022-08-14 16:30:00 GDPM5
04010510 GRAND PORTAGE RIVER AT GRAND PORTAGE MN   15.88 3.46 118 2022-08-14 15:45:00  
04015330 KNIFE RIVER NEAR TWO HARBORS, MN   25.80 8.79 25,500 2022-08-14 16:15:00 KNIM5
04015438 ST. LOUIS RIVER NEAR SKIBO, MN   17.33 7.92 813 2022-08-14 15:45:00 IBOM5
04021520 STONEY BROOK AT PINE DRIVE NEAR BROOKSTON, MN   3.78 Bkw 1,170 2022-08-14 16:00:00 BKNM5
04024000 ST. LOUIS RIVER AT SCANLON, MN 10.5 3.98 1,970 45,300 2022-08-14 16:30:00 SCNM5
05030500 OTTER TAIL RIVER NEAR ELIZABETH, MN   6.21 440 1,360 2022-08-14 16:30:00 ELZM5
05046000 OTTER TAIL RIVER BL ORWELL D NR FERGUS FALLS, MN   3.17 569 2,380 2022-08-14 16:30:00  
05046475 OTTER TAIL RIVER DIVERSION AT BRECKENRIDGE, MN   4.23 0.00 5,400 2022-08-06 09:15:00 BTWM5
05049000 MUSTINKA RIVER ABOVE WHEATON, MN   77.86 Rat 11,000 2022-08-14 16:30:00 WEAM5
05049700 LAKE TRAVERSE AT RESERVATION DAM NEAR WHEATON, MN   77.59

 

  2022-08-14 16:00:00 TRAM5
05049710 LAKE TRAVERSE OTLT AT RESERVATION DAM NR WHEATON   72.22

 

  2022-08-14 16:00:00  
05049900 MUD LAKE NORTH OF 670TH STREET NEAR WHEATON, MN   72.11

 

  2022-08-14 16:30:00 MLWM5
05049995 MUD LAKE ABOVE WHITE ROCK DAM NEAR WHITE ROCK, SD   72.22

 

  2022-08-14 16:30:00  
05050000 BOIS DE SIOUX RIVER NEAR WHITE ROCK, SD 80 3.87 5.48 8,750 2022-08-14 16:30:00 WHRM5
05051300 BOIS DE SIOUX RIVER NEAR DORAN, MN   6.52 0.02 12,300 2022-08-14 16:00:00 DORM5
05061000 BUFFALO RIVER NEAR HAWLEY, MN 8 3.30 33.4 3,000 2022-08-14 16:45:00 HWYM5
05061500 SOUTH BRANCH BUFFALO RIVER AT SABIN, MN 13 6.29 93.6 8,500 2022-08-14 16:45:00 SABM5
05062000 BUFFALO RIVER NEAR DILWORTH, MN 13 3.88 62.6 13,600 2022-08-14 16:45:00 DILM5
05062500 WILD RICE RIVER AT TWIN VALLEY, MN 10 1.99 59.5 20,300 2022-08-14 16:45:00 TWVM5
05063398 S. BR. WILD RICE RIVER AT CO. RD. 27 NR FELTON, MN   4.54 9.14 5,490 2022-08-14 16:45:00 FLTM5
05064000 WILD RICE RIVER AT HENDRUM, MN 20 4.15 75.8 10,600 2022-08-14 16:30:00 HNDM5
05067500 MARSH RIVER NEAR SHELLY, MN 14 3.71 0.00 6,390 2022-08-14 16:30:00 SHYM5
05069000 SAND HILL RIVER AT CLIMAX, MN 20 4.09 27.8 4,800 2022-08-14 16:45:00 CLXM5
05073500 UPPER RED LAKE AT WASKISH, MN   75.73

 

  2022-08-14 16:30:00 WSKM5
05073650 LOWER RED LAKE AT MOUTH BATTLE RIVER NR SAUM, MN   75.35

 

  2022-08-14 16:30:00 SAUM5
05074000 LOWER RED LAKE NR RED LAKE, MN   75.81

 

  2022-08-14 16:30:00 RRDM5
05074500 RED LAKE RIVER NEAR RED LAKE, MN   72.62 554 3,600 2022-08-14 16:30:00 RRDM5
05075000 RED LAKE RIVER AT HIGH LANDING NR GOODRIDGE, MN 12 7.19 1,020 4,060 2022-08-14 16:00:00 HIGM5
05076000 THIEF RIVER NEAR THIEF RIVER FALLS, MN   4.91 31.5 5,610 2022-08-14 16:15:00 TRRM5
05078000 CLEARWATER RIVER AT PLUMMER, MN   2.90 70.4 3,970 2022-08-14 16:15:00 PLUM5
05078230 LOST RIVER AT OKLEE, MN   3.03 2.62 3,210 2022-08-14 16:30:00 OKLM5
05078500 CLEARWATER RIVER AT RED LAKE FALLS, MN   5.55 131 12,400 2022-08-14 16:45:00 RDLM5
05079000 RED LAKE RIVER AT CROOKSTON, MN 15 5.90 977 28,400 2022-08-14 16:45:00 CRKM5
05080000 RED LAKE RIVER AT FISHER, MN   12.82 1,140 26,400 2022-08-14 16:30:00 FSHM5
05083500 RED RIVER OF THE NORTH AT OSLO, MN 26 8.30

 

120,000 2022-08-14 16:15:00 OSLM5
05085450 SNAKE RIVER ABOVE WARREN, MN 67 60.63 0.00 1,880 2022-08-14 16:45:00 MKLM5
05087500 MIDDLE RIVER AT ARGYLE, MN   3.30 6.42 5,020 2022-08-14 16:00:00 AGYM5
05094000 SOUTH BRANCH TWO RIVERS AT LAKE BRONSON, MN   3.63 15.5 5,410 2022-08-14 16:15:00 OSLM5
05104500 ROSEAU RIVER BELOW SOUTH FORK NEAR MALUNG, MN   3.61 2.83 16,000 2022-08-14 16:30:00 MALM5
05106000 SPRAGUE CREEK NEAR SPRAGUE, MANITOBA, CANADA   2.63 6.25 3,720 2022-08-14 16:30:00 SRGM5
05107500 ROSEAU RIVER AT ROSS, MN   2.23 29.6 10,500 2022-08-14 16:30:00 RSSM5
05112000 ROSEAU RIVER BELOW STATE DITCH 51 NR CARIBOU, MN   2.22 32.1 4,320 2022-08-14 16:30:00 CARM5
05124480 KAWISHIWI RIVER NEAR ELY, MN   3.07 67.1 1,870 2022-08-14 16:15:00 KAWM5
05125000 SOUTH KAWISHIWI RIVER NEAR ELY, MN   2.33 157 5,130 2022-08-14 16:30:00 SKRM5
05126210 SOUTH KAWISHIWI R ABV WHITE IRON LAKE NR ELY, MN   4.27 369 8,080 2022-08-14 16:30:00 SKWM5
05127500 BASSWOOD RIVER NEAR WINTON, MN   3.09 690 15,600 2022-08-14 16:30:00 WTNM5
05129115 VERMILION RIVER NR CRANE LAKE, MN   6.59 412 4,600 2022-08-14 16:30:00 CLKM5
05129290 GOLD PORTAGE OUTLET FROM KABETOGAMA LK NR RAY,MN   17.51 538 1,400 2022-08-14 16:30:00 GPOM5
05129515 RAINY R AT BOAT LANDING BLW INTERNATIONAL FALLS,MN   19.30 14,100 45,800 2022-08-14 16:30:00 RNYM5
05131500 LITTLE FORK RIVER AT LITTLEFORK, MN   3.04 364 25,000 2022-08-14 16:30:00 LFKM5
05132000 BIG FORK RIVER AT BIG FALLS, MN   3.17 219 14,800 2022-08-14 16:30:00 BIFM5
05133500 RAINY RIVER AT MANITOU RAPIDS, MN   7.08 14,700 76,100 2022-08-14 16:30:00 MNUM5
05134200 RAPID RIVER NEAR BAUDETTE, MN   2.47 37.0 7,580 2022-08-14 16:15:00 BRRM5
05137500 RAINY RIVER NEAR BOAT LANDING AT WHEELERS POINT,MN   8.06

 

99,100 2022-08-14 16:00:00 WHPM5
05140520 LAKE OF THE WOODS AT WARROAD, MN   62.36

 

1,061.36 2022-08-14 16:30:00 WRDM5
05140521 LK OF THE WOODS @ SPRINGSTEEL IS NR. WARROAD, MN   62.40

 

  2022-08-14 16:00:00 SSIM5
05200510 MISSISSIPPI RIVER NEAR BEMIDJI, MN   2.99 160 1,820 2022-08-14 16:30:00 BEMM5
05205900 LEECH LAKE AT SUGAR POINT NEAR FEDERAL DAM, MN   94.65

 

  2022-08-14 16:30:00  
05207600 MISSISSIPPI RIVER AT WILLOW BEACH AT BALL CLUB, MN   9.48 2,020 2,720 2022-08-14 16:15:00  
05210000 MISSISSIPPI R. AT DAYS HIGH LANDING NR DEER RIVER   76.00

 

  2022-08-14 16:30:00  
05211000 MISSISSIPPI RIVER AT GRAND RAPIDS, MN   5.85 1,880 12,500 2022-08-14 16:15:00 GNDM5
05212700 PRAIRIE RIVER NEAR TACONITE, MN 10 3.59 186 3,260 2022-08-14 16:45:00 TACM5
05227500 MISSISSIPPI RIVER AT AITKIN, MN 13 7.13 2,970 20,000 2022-08-14 16:30:00 ATKM5
05227530 MISSISSIPPI RIVER DIVERSION NEAR AITKIN, MN   4.82 319 14.07 2022-08-14 16:00:00  
05242300 MISSISSIPPI RIVER AT BRAINERD, MN   6.70 3,240 17,900 2022-08-14 16:30:00 BRAM5
05243725 STRAIGHT RIVER NEAR PARK RAPIDS, MN   1.27 51.8 182 2022-08-14 16:30:00 PRKM5
05244000 CROW WING RIVER AT NIMROD, MN   3.07 371 3,700 2022-08-14 16:00:00 NIMM5
05245100 LONG PRAIRIE RIVER AT LONG PRAIRIE, MN 7 2.86 210 3,270 2022-08-14 16:15:00 LGPM5
05247500 CROW WING RIVER NEAR PILLAGER, MN   3.90 1,060 18,300 2022-08-14 16:45:00 PLGM5
05267000 MISSISSIPPI RIVER NEAR ROYALTON, MN   9.78 4,950 38,200 2022-08-14 16:15:00 BLHM5
05270500 SAUK RIVER NEAR ST. CLOUD, MN 6 1.15 63.4 9,100 2022-08-14 16:15:00 STCM5
05270700 MISSISSIPPI RIVER AT ST. CLOUD, MN 9 5.09 5,180 46,900 2022-08-14 15:45:00 SCOM5
05275000 ELK RIVER NEAR BIG LAKE, MN   1.03 195 7,360 2022-08-14 16:15:00 ERVM5
05280000 CROW RIVER AT ROCKFORD, MN 10 2.52 274 22,400 2022-08-14 16:15:00 RKFM5
05283500 MISSISSIPPI RIVER AT US HWY 169 AT CHAMPLIN, MN 12 4.45 4,140 49,100 2022-08-14 16:30:00 AKAM5
05284000 MILLE LACS LAKE AT COVE BAY NEAR ONAMIA, MN   11.24

 

1,252.26 2022-08-14 16:15:00 MLLM5
05286000 RUM RIVER NEAR ST. FRANCIS, MN 8 2.71 325 10,100 2022-08-14 16:30:00 STFM5
05287890 ELM CREEK NR CHAMPLIN, MN   3.28 3.84 1,220 2022-08-14 16:00:00 CHPM5
05288475 COON CREEK AT 131 STREET IN COON RAPIDS, MN   854.56

 

  2022-06-15 19:30:00  
05288487 SAND CREEK AT XEON STREET IN COON RAPIDS, MN   14.67

 

  2022-06-15 18:15:00  
05288490 COON CREEK AT VALE STREET IN COON RAPIDS, MN   6.80 18.9   2022-08-14 16:45:00  
05288500 MISSISSIPPI RIVER AT HWY 610 IN BROOKLYN PARK, MN   3.30 6,430 91,000 2022-08-14 16:00:00 ANKM5
05288580 RICE CREEK BLW OLD HWY. 8 IN MOUNDS VIEW, MN   7.21 9.37 445 2022-08-14 16:45:00 RCUM5
05288670 MISSISSIPPI RIVER ABV 37TH AVE. NE IN FRIDLEY, MN   88.39

 

  2022-08-14 16:30:00  
05288705 SHINGLE CREEK AT QUEEN AVE IN MINNEAPOLIS, MN   9.51 13.5 312 2022-08-14 16:00:00  
05289000 LAKE MINNETONKA ABV GRAYS BAY OTLT IN MINNETONKA   928.35

 

  2022-08-14 16:00:00 MTKM5
05289100 MINNEHAHA CREEK BLW GRAYS BAY DAM IN MINNETONKA MN   925.40

 

  2022-08-14 16:00:00  
05289800 MINNEHAHA CREEK AT HIAWATHA AVE. IN MINNEAPOLIS,MN   12.03 7.76 871 2022-08-14 16:00:00 MHAM5
05290000 LITTLE MINNESOTA RIVER NEAR PEEVER, SD 17 10.02 4.45 8,900 2022-08-14 16:45:00 PVRS2
05291000 WHETSTONE RIVER NEAR BIG STONE CITY, SD 12 1.82 50.1 29,000 2022-08-14 16:45:00 BGCS2
05292000 MINNESOTA RIVER AT ORTONVILLE, MN 10 1.83 56.6 5,680 2022-08-14 16:30:00 ORTM5
05293000 YELLOW BANK RIVER NEAR ODESSA, MN   1.52 27.8 6,970 2022-08-14 16:30:00 ODSM5
05294000 POMME DE TERRE RIVER AT APPLETON, MN   4.63 125 8,890 2022-08-14 16:00:00 APPM5
05300000 LAC QUI PARLE RIVER NEAR LAC QUI PARLE, MN   5.04 23.8 17,100 2022-08-14 16:45:00 LQPM5
05301000 MINNESOTA RIVER NEAR LAC QUI PARLE, MN   22.45 590 43,000 2022-08-14 16:00:00 LQRM5
05304500 CHIPPEWA RIVER NEAR MILAN, MN   1.53 235 14,400 2022-08-14 16:45:00 MLNM5
05304995 CHIPPEWA R. (HW) ABOVE COUNTY RD 13 NR WATSON, MN   39.04

 

  2022-08-14 16:00:00  
05305000 CHIPPEWA RIVER (TW) NEAR WATSON, MN   37.01 104 9,700 2022-08-14 16:00:00 WTSM5
05311000 MINNESOTA RIVER AT MONTEVIDEO, MN 14 4.46 704 47,500 2022-08-14 16:00:00 MVOM5
05311150 MINNESOTA RIVER AT HWY 212 IN GRANITE FALLS, MN 888.5 880.62 852 31,000 2022-08-14 16:15:00 GTEM5
05313500 YELLOW MEDICINE RIVER NEAR GRANITE FALLS, MN   2.46 20.2 17,200 2022-08-14 16:45:00 GRNM5
05315000 REDWOOD RIVER NEAR MARSHALL, MN 14 6.96 7.88 6,380 2022-08-14 16:00:00 MSHM5
05316500 REDWOOD RIVER NEAR REDWOOD FALLS, MN 6 1.64 23.6 19,700 2022-08-14 16:30:00 RWDM5
05316580 MINNESOTA RIVER AT MORTON, MN 21 9.66 918 45,400 2022-08-14 16:30:00 MTNM5
05316770 MINNESOTA RIVER AT NEW ULM, MN 800 786.67 1,150 58,000 2022-08-14 16:45:00 NULM5
05317000 COTTONWOOD RIVER NEAR NEW ULM, MN 11 3.82 100 28,700 2022-08-14 16:00:00 NWUM5
05317200 LITTLE COTTONWOOD RIVER NEAR COURTLAND, MN   3.09 26.4 6,060 2022-08-14 16:15:00  
05319500 WATONWAN RIVER NEAR GARDEN CITY, MN   0.97 72.1 19,000 2022-08-14 16:30:00 GRDM5
05320000 BLUE EARTH RIVER NEAR RAPIDAN, MN   2.01 295 43,100 2022-08-14 15:45:00 RAPM5
05320500 LE SUEUR RIVER NEAR RAPIDAN, MN   1.83 46.0 30,500 2022-08-14 16:00:00 RPDM5
05325000 MINNESOTA RIVER AT MANKATO, MN 22 3.31 1,920 94,100 2022-08-14 16:30:00 MNKM5
05327000 HIGH ISLAND CREEK NEAR HENDERSON, MN   3.56 16.3 3,710 2022-08-14 16:00:00 HICM5
05330000 MINNESOTA RIVER NEAR JORDAN, MN 25 5.80 2,090 117,000 2022-08-14 16:45:00 JDNM5
05331000 MISSISSIPPI RIVER AT ST. PAUL, MN 14 3.75 8,950 171,000 2022-08-14 16:00:00 STPM5
05331580 MISSISSIPPI RIVER BELOW L&D #2 AT HASTINGS, MN   7.44 12,900 147,000 2022-08-14 16:00:00  
05336700 KETTLE RIVER BELOW SANDSTONE, MN   4.05 136 24,800 2022-08-14 16:45:00 SANM5
05338500 SNAKE RIVER NEAR PINE CITY, MN 9 2.90 96.7 14,300 2022-08-14 16:15:00 PNCM5
05341550 ST. CROIX RIVER AT STILLWATER, MN 687.00 675.69 2,250 54,200 2022-08-14 16:15:00 STLM5
05344490 ST. CROIX RIVER AT PRESCOTT, WI   25.46 1,750 43,300 2022-08-14 16:15:00 PSCW3
05344500 MISSISSIPPI RIVER AT PRESCOTT, WI   25.26 14,800 228,000 2022-08-14 16:15:00 PREW3
05345000 VERMILLION RIVER NEAR EMPIRE, MN   2.01 19.3 6,570 2022-08-14 16:15:00 EMPM5
05353800 STRAIGHT RIVER NEAR FARIBAULT, MN   3.98 94.2 12,200 2022-08-14 16:15:00 FRBM5
05354500 CANNON RIVER AT CO. HWY. 29 BELOW FARIBAULT, MN   9.11 132 11,600 2022-08-14 16:15:00 FRLM5
05355024 CANNON RIVER AT NORTHFIELD MN 897 889.87 160 16,600 2022-08-14 16:30:00 NRFM5
05355038 CHUB CREEK AT CO. HWY. 47 ABOVE RANDOLPH, MN   4.52

 

1,520 2022-08-14 16:30:00  
05355080 PRAIRIE CREEK NEAR CANNON FALLS, MN   11.86

 

2,200 2022-08-14 16:15:00 CNPM5
05355092 CANNON RIVER AT 9TH ST. BRIDGE IN CANNON FALLS, MN   7.34 169 12,200 2022-08-14 16:50:00 CFLM5
05355200 CANNON RIVER AT WELCH, MN   3.50 258 36,100 2022-08-14 16:15:00 WLCM5
05355250 MISSISSIPPI RIVER AT RED WING, MN 14 2.66 11,600 163,000 2022-08-14 16:15:00 REDM5
05372995 SOUTH FORK ZUMBRO RIVER AT ROCHESTER, MN 14 3.19 196 30,500 2022-08-14 16:15:00 RCHM5
05374000 ZUMBRO RIVER AT ZUMBRO FALLS, MN 18 5.60

 

53,000 2022-08-14 16:30:00 ZUMM5
05378490 MISSISSIPPI RIVER AT LOCK AND DAM 5A NR WINONA, MN   6.09

 

  2022-08-14 16:15:00  
05378500 MISSISSIPPI RIVER AT WINONA, MN 13 5.82 20,800 268,000 2022-08-14 16:45:00 WNAM5
05383950 ROOT RIVER NEAR PILOT MOUND, MN 19 9.60 1,030 21,900 2022-08-14 16:00:00 RPMM5
05384350 ROOT RIVER ABOVE RUSHFORD, MN 21 10.65

 

32,400 2022-08-14 16:00:00 RSFM5
05384500 RUSH CREEK NEAR RUSHFORD, MN   -0.69

 

38,400 2022-08-14 16:30:00  
05384800 CAMPBELL CREEK NEAR MONEY CREEK, MN   7.04

 

3,630 2022-08-14 22:00:00  
05385000 ROOT RIVER NEAR HOUSTON, MN 15 5.76 2,010 46,000 2022-08-14 16:45:00 HOUM5
05385500 SOUTH FORK ROOT RIVER NEAR HOUSTON, MN   2.25 204 13,800 2022-08-14 16:30:00  
05386400 MISSISSIPPI RIVER AT BROWNSVILLE, MN   31.54

 

  2022-08-14 16:45:00  
05387030 CROOKED CREEK AT FREEBURG MN   6.91

 

7,060 2022-08-14 16:30:00  
05457000 CEDAR RIVER NEAR AUSTIN, MN   3.21 182 20,000 2022-08-14 16:00:00  
05475350 DES MOINES RIVER ABOVE WINDOM, MN 19 10.45

 

  2022-08-14 16:15:00 WDOM5
05476000 DES MOINES RIVER AT JACKSON, MN 12 7.61 199 15,700 2022-08-14 16:30:00 JCKM5